createdAt,value
2022-08-26T00:01:42.264Z,9.70
2022-08-26T00:04:11.972Z,9.07
2022-08-26T00:06:38.873Z,8.35
2022-08-26T00:09:09.804Z,8.70
2022-08-26T00:11:36.963Z,9.27
2022-08-26T00:14:03.706Z,9.60
2022-08-26T00:16:31.818Z,10.18
2022-08-26T00:18:58.897Z,9.18
2022-08-26T00:21:25.423Z,8.68
2022-08-26T00:23:52.069Z,9.02
2022-08-26T00:26:18.669Z,8.98
2022-08-26T00:28:47.433Z,9.07
2022-08-26T00:31:14.366Z,9.63
2022-08-26T00:33:41.047Z,8.60
2022-08-26T00:36:08.463Z,8.90
2022-08-26T00:38:46.896Z,9.90
2022-08-26T00:41:13.895Z,8.32
2022-08-26T00:43:47.737Z,8.32
2022-08-26T00:46:19.393Z,8.10
2022-08-26T00:48:48.123Z,9.00
2022-08-26T00:51:21.303Z,8.85
2022-08-26T00:53:55.378Z,8.48
2022-08-26T00:56:41.530Z,9.50
2022-08-26T00:59:11.901Z,8.18
2022-08-26T01:01:41.361Z,8.70
2022-08-26T01:04:09.753Z,8.23
2022-08-26T01:07:23.104Z,8.63
2022-08-26T01:09:49.853Z,8.90
2022-08-26T01:12:17.114Z,8.63
2022-08-26T01:14:49.772Z,8.65
2022-08-26T01:17:16.880Z,8.68
2022-08-26T01:19:48.831Z,9.25
2022-08-26T01:22:23.174Z,8.73
2022-08-26T01:24:55.067Z,9.05
2022-08-26T01:27:23.398Z,8.80
2022-08-26T01:29:51.585Z,8.77
2022-08-26T01:32:23.305Z,7.75
2022-08-26T01:34:50.469Z,9.23
2022-08-26T01:37:25.909Z,8.68
2022-08-26T01:39:55.253Z,8.85
2022-08-26T01:42:24.663Z,9.25
2022-08-26T01:44:56.108Z,9.18
2022-08-26T01:47:25.924Z,9.30
2022-08-26T01:49:55.915Z,9.25
2022-08-26T01:52:28.181Z,9.80
2022-08-26T01:54:57.308Z,9.50
2022-08-26T01:57:25.272Z,9.82
2022-08-26T01:59:54.622Z,9.60
2022-08-26T02:02:21.702Z,7.82
2022-08-26T02:04:58.267Z,9.88
2022-08-26T02:07:26.619Z,8.57
2022-08-26T02:09:53.864Z,9.45
2022-08-26T02:12:20.626Z,9.05
2022-08-26T02:14:52.121Z,8.80
2022-08-26T02:19:49.354Z,8.68
2022-08-26T02:22:19.702Z,9.65
2022-08-26T02:25:01.367Z,9.63
2022-08-26T02:27:32.902Z,9.35
2022-08-26T02:30:28.197Z,10.30
2022-08-26T02:32:55.088Z,10.45
2022-08-26T02:35:23.793Z,9.75
2022-08-26T02:37:52.407Z,9.48
2022-08-26T02:40:25.045Z,9.98
2022-08-26T02:42:53.143Z,9.85
2022-08-26T02:45:23.225Z,10.02
2022-08-26T02:47:51.234Z,9.90
2022-08-26T02:50:18.081Z,9.40
2022-08-26T02:52:44.573Z,10.05
2022-08-26T02:55:11.203Z,10.45
2022-08-26T02:57:37.827Z,10.75
2022-08-26T03:00:07.927Z,10.35
2022-08-26T03:02:34.809Z,9.60
2022-08-26T03:05:02.198Z,10.00
2022-08-26T03:07:29.980Z,10.05
2022-08-26T03:09:57.675Z,10.10
2022-08-26T03:12:24.237Z,10.65
2022-08-26T03:14:52.891Z,11.27
2022-08-26T03:17:19.475Z,10.20
2022-08-26T03:19:45.952Z,11.32
2022-08-26T03:22:12.434Z,10.45
2022-08-26T03:24:41.274Z,11.02
2022-08-26T03:27:12.857Z,10.32
2022-08-26T03:29:59.655Z,10.27
2022-08-26T03:32:26.989Z,11.50
2022-08-26T03:34:54.345Z,11.38
2022-08-26T03:37:21.610Z,11.15
2022-08-26T03:39:48.489Z,11.73
2022-08-26T03:42:15.139Z,11.50
2022-08-26T03:44:41.980Z,11.68
2022-08-26T03:47:09.020Z,10.75
2022-08-26T03:49:35.910Z,11.95
2022-08-26T03:52:03.608Z,11.23
2022-08-26T03:54:30.306Z,10.35
2022-08-26T03:56:56.799Z,11.15
2022-08-26T03:59:23.519Z,11.43
2022-08-26T04:01:51.130Z,11.73
2022-08-26T04:04:18.181Z,11.27
2022-08-26T04:06:50.175Z,10.10
2022-08-26T04:09:20.777Z,10.70
2022-08-26T04:11:50.738Z,11.03
2022-08-26T04:14:20.421Z,11.63
2022-08-26T04:16:47.576Z,11.68
2022-08-26T04:19:15.720Z,11.70
2022-08-26T04:21:42.599Z,11.23
2022-08-26T04:24:12.243Z,11.48
2022-08-26T04:26:42.867Z,11.57
2022-08-26T04:29:18.016Z,12.07
2022-08-26T04:31:46.898Z,10.93
2022-08-26T04:34:15.120Z,11.70
2022-08-26T04:36:43.080Z,9.48
2022-08-26T04:39:12.239Z,10.63
2022-08-26T04:41:39.585Z,11.13
2022-08-26T04:44:07.164Z,10.75
2022-08-26T04:46:33.913Z,10.43
2022-08-26T04:49:00.466Z,10.57
2022-08-26T04:51:30.039Z,11.00
2022-08-26T04:53:57.966Z,10.75
2022-08-26T04:56:26.618Z,11.02
2022-08-26T04:58:53.532Z,10.45
2022-08-26T05:01:21.362Z,11.10
2022-08-26T05:03:50.836Z,11.00
2022-08-26T05:06:19.386Z,11.68
2022-08-26T05:08:46.714Z,11.68
2022-08-26T05:11:13.523Z,11.73
2022-08-26T05:13:40.365Z,12.15
2022-08-26T05:16:11.563Z,10.73
2022-08-26T05:18:39.517Z,10.15
2022-08-26T05:21:07.435Z,11.73
2022-08-26T05:23:35.957Z,11.35
2022-08-26T05:26:02.501Z,10.70
2022-08-26T05:28:31.678Z,11.68
2022-08-26T05:30:58.675Z,10.95
2022-08-26T05:33:25.234Z,10.68
2022-08-26T05:35:51.865Z,11.57
2022-08-26T05:38:20.750Z,10.80
2022-08-26T05:40:52.909Z,11.27
2022-08-26T05:43:21.268Z,10.30
2022-08-26T05:45:49.986Z,11.43
2022-08-26T05:48:18.946Z,11.70
2022-08-26T05:50:52.237Z,12.60
2022-08-26T05:53:21.720Z,11.15
2022-08-26T05:55:52.258Z,11.38
2022-08-26T05:58:21.665Z,11.80
2022-08-26T06:01:00.674Z,11.30
2022-08-26T06:03:28.290Z,11.23
2022-08-26T06:05:55.258Z,11.60
2022-08-26T06:08:21.799Z,10.75
2022-08-26T06:10:49.060Z,11.10
2022-08-26T06:13:19.460Z,11.10
2022-08-26T06:15:48.760Z,11.82
2022-08-26T06:18:18.517Z,11.98
2022-08-26T06:20:57.427Z,11.63
2022-08-26T06:23:45.066Z,11.35
2022-08-26T06:26:12.493Z,11.40
2022-08-26T06:28:39.126Z,11.18
2022-08-26T06:31:06.222Z,10.68
2022-08-26T06:33:33.506Z,11.85
2022-08-26T06:36:01.118Z,11.25
2022-08-26T06:38:28.428Z,9.35
2022-08-26T06:40:55.401Z,11.20
2022-08-26T06:43:25.750Z,10.65
2022-08-26T06:45:59.696Z,11.60
2022-08-26T06:48:26.262Z,11.50
2022-08-26T06:51:04.238Z,12.27
2022-08-26T06:53:30.821Z,11.63
2022-08-26T06:55:57.355Z,11.35
2022-08-26T06:58:23.978Z,10.90
2022-08-26T07:00:51.256Z,11.45
2022-08-26T07:03:18.350Z,10.32
2022-08-26T07:05:44.893Z,11.82
2022-08-26T07:08:11.984Z,11.25
2022-08-26T07:10:38.759Z,9.75
2022-08-26T07:13:06.020Z,10.05
2022-08-26T07:15:36.170Z,9.82
2022-08-26T07:18:03.017Z,9.98
2022-08-26T07:20:29.571Z,9.88
2022-08-26T07:22:56.127Z,11.00
2022-08-26T07:25:22.640Z,10.07
2022-08-26T07:27:54.299Z,10.05
2022-08-26T07:30:21.475Z,9.70
2022-08-26T07:32:48.230Z,9.18
2022-08-26T07:35:15.037Z,9.82
2022-08-26T07:37:42.680Z,8.60
2022-08-26T07:40:09.605Z,9.27
2022-08-26T07:42:36.234Z,10.05
2022-08-26T07:45:02.868Z,8.30
2022-08-26T07:47:29.481Z,9.00
2022-08-26T07:49:57.557Z,8.57
2022-08-26T07:52:27.437Z,9.43
2022-08-26T07:54:56.369Z,9.57
2022-08-26T07:57:24.211Z,8.57
2022-08-26T07:59:51.057Z,9.70
2022-08-26T08:02:17.645Z,8.30
2022-08-26T08:04:44.296Z,9.07
2022-08-26T08:07:11.587Z,8.30
2022-08-26T08:09:38.612Z,8.90
2022-08-26T08:12:07.415Z,9.35
2022-08-26T08:14:36.428Z,8.80
2022-08-26T08:17:04.465Z,8.15
2022-08-26T08:19:36.698Z,8.40
2022-08-26T08:22:17.500Z,8.80
2022-08-26T08:24:44.835Z,9.65
2022-08-26T08:27:11.314Z,8.80
2022-08-26T08:29:38.683Z,9.23
2022-08-26T08:32:05.581Z,8.07
2022-08-26T08:34:37.939Z,9.38
2022-08-26T08:37:08.677Z,8.57
2022-08-26T08:39:37.246Z,8.30
2022-08-26T08:42:07.718Z,8.15
2022-08-26T08:44:39.853Z,8.15
2022-08-26T08:47:25.030Z,7.68
2022-08-26T08:49:54.585Z,8.02
2022-08-26T08:52:35.205Z,7.88
2022-08-26T08:55:11.044Z,7.55
2022-08-26T08:57:55.701Z,7.97
2022-08-26T09:00:39.858Z,8.48
2022-08-26T09:03:32.239Z,6.80
2022-08-26T09:06:01.599Z,7.47
2022-08-26T09:08:35.739Z,7.15
2022-08-26T09:11:04.371Z,7.10
2022-08-26T09:13:31.761Z,8.35
2022-08-26T09:16:07.286Z,7.60
2022-08-26T09:18:55.370Z,8.43
2022-08-26T09:21:25.274Z,6.70
2022-08-26T09:23:55.643Z,6.90
2022-08-26T09:26:38.468Z,7.57
2022-08-26T09:29:13.853Z,7.35
2022-08-26T09:31:41.424Z,7.82
2022-08-26T09:34:22.142Z,7.93
2022-08-26T09:36:59.587Z,7.68
2022-08-26T09:39:26.065Z,8.00
2022-08-26T09:42:25.580Z,7.60
2022-08-26T09:45:00.121Z,7.75
2022-08-26T09:47:46.749Z,7.93
2022-08-26T09:50:29.355Z,7.72
2022-08-26T09:53:20.991Z,7.82
2022-08-26T09:56:17.675Z,7.95
2022-08-26T09:58:47.264Z,6.95
2022-08-26T10:01:40.163Z,7.57
2022-08-26T10:04:27.112Z,7.32
2022-08-26T10:07:03.307Z,7.55
2022-08-26T10:09:40.522Z,7.20
2022-08-26T10:12:21.756Z,7.25
2022-08-26T10:14:54.400Z,7.45
2022-08-26T10:17:39.067Z,6.28
2022-08-26T10:20:23.308Z,8.32
2022-08-26T10:22:58.676Z,7.00
2022-08-26T10:25:33.182Z,7.07
2022-08-26T10:28:06.778Z,8.23
2022-08-26T10:30:58.261Z,7.60
2022-08-26T10:33:25.450Z,9.30
2022-08-26T10:36:05.264Z,7.75
2022-08-26T10:38:40.385Z,7.40
2022-08-26T10:41:16.810Z,8.00
2022-08-26T10:43:54.077Z,8.90
2022-08-26T10:46:27.115Z,7.72
2022-08-26T10:49:06.594Z,8.13
2022-08-26T10:51:42.023Z,8.05
2022-08-26T10:54:16.451Z,7.57
2022-08-26T10:57:30.522Z,6.90
2022-08-26T11:00:23.828Z,8.10
2022-08-26T11:03:03.205Z,7.97
2022-08-26T11:05:29.980Z,8.30
2022-08-26T11:08:21.592Z,8.32
2022-08-26T11:10:59.464Z,7.97
2022-08-26T11:13:57.207Z,7.75
2022-08-26T11:16:44.393Z,7.10
2022-08-26T11:19:59.560Z,7.85
2022-08-26T11:22:36.249Z,7.93
2022-08-26T11:25:07.710Z,9.73
2022-08-26T11:27:38.423Z,7.70
2022-08-26T11:30:15.755Z,8.20
2022-08-26T11:32:50.614Z,8.77
2022-08-26T11:35:17.186Z,8.73
2022-08-26T11:37:51.266Z,8.23
2022-08-26T11:40:22.212Z,8.13
2022-08-26T11:42:59.584Z,7.78
2022-08-26T11:46:00.822Z,7.60
2022-08-26T11:51:02.444Z,3.47
2022-08-26T11:53:32.541Z,3.42
2022-08-26T11:56:04.265Z,4.35
2022-08-26T11:58:31.936Z,3.47
2022-08-26T12:01:01.896Z,3.78
2022-08-26T12:03:38.818Z,3.85
2022-08-26T12:06:22.892Z,4.82
2022-08-26T12:08:50.300Z,3.72
2022-08-26T12:11:25.966Z,3.90
2022-08-26T12:14:25.998Z,3.67
2022-08-26T12:16:54.526Z,3.95
2022-08-26T12:19:33.463Z,4.22
2022-08-26T12:22:22.196Z,3.75
2022-08-26T12:24:53.595Z,3.67
2022-08-26T12:27:34.438Z,3.50
2022-08-26T12:30:13.877Z,3.72
2022-08-26T12:32:55.127Z,3.90
2022-08-26T12:35:25.697Z,3.47
2022-08-26T12:37:53.924Z,4.10
2022-08-26T12:40:44.007Z,4.40
2022-08-26T12:43:14.492Z,4.38
2022-08-26T12:45:59.872Z,4.70
2022-08-26T12:48:30.463Z,7.85
2022-08-26T12:50:58.059Z,5.50
2022-08-26T12:53:27.840Z,5.20
2022-08-26T12:56:01.489Z,4.57
2022-08-26T12:58:34.040Z,3.80
2022-08-26T13:01:00.626Z,4.15
2022-08-26T13:03:45.456Z,4.28
2022-08-26T13:06:22.176Z,3.72
2022-08-26T13:08:51.693Z,3.38
2022-08-26T13:11:44.932Z,3.85
2022-08-26T13:14:24.162Z,4.30
2022-08-26T13:16:51.986Z,3.72
2022-08-26T13:19:21.889Z,4.07
2022-08-26T13:21:54.719Z,5.07
2022-08-26T13:24:26.162Z,5.43
2022-08-26T13:29:19.458Z,6.35
2022-08-26T13:31:46.763Z,6.22
2022-08-26T13:34:18.005Z,7.20
2022-08-26T13:36:45.141Z,7.80
2022-08-26T13:39:12.055Z,7.78
2022-08-26T13:41:38.807Z,7.75
2022-08-26T13:44:05.982Z,7.28
2022-08-26T13:46:32.764Z,7.13
2022-08-26T13:48:59.499Z,7.05
2022-08-26T13:51:27.471Z,6.05
2022-08-26T13:53:54.420Z,6.43
2022-08-26T13:56:21.603Z,7.07
2022-08-26T13:58:48.221Z,7.05
2022-08-26T14:01:17.414Z,6.70
2022-08-26T14:03:44.030Z,6.30
2022-08-26T14:06:10.848Z,5.88
2022-08-26T14:08:38.972Z,5.68
2022-08-26T14:11:06.278Z,7.70
2022-08-26T14:13:32.816Z,8.50
2022-08-26T14:16:01.440Z,7.82
2022-08-26T14:18:33.338Z,6.88
2022-08-26T14:21:00.261Z,6.50
2022-08-26T14:23:27.633Z,4.78
2022-08-26T14:25:54.171Z,5.75
2022-08-26T14:28:20.738Z,6.75
2022-08-26T14:30:57.129Z,6.03
2022-08-26T14:33:27.239Z,6.93
2022-08-26T14:36:13.671Z,7.05
2022-08-26T14:38:40.144Z,7.28
2022-08-26T14:41:06.606Z,7.93
2022-08-26T14:43:33.550Z,8.20
2022-08-26T14:46:01.027Z,8.23
2022-08-26T14:48:27.512Z,8.85
2022-08-26T14:50:53.984Z,7.20
2022-08-26T14:53:38.767Z,9.32
2022-08-26T14:56:05.502Z,10.05
2022-08-26T14:58:34.918Z,13.55
2022-08-26T15:01:04.187Z,14.77
2022-08-26T15:03:30.943Z,11.85
2022-08-26T15:05:57.873Z,13.60
2022-08-26T15:08:24.459Z,14.52
2022-08-26T15:10:51.036Z,17.67
2022-08-26T15:13:17.506Z,16.40
2022-08-26T15:15:44.176Z,20.15
2022-08-26T15:18:10.846Z,17.00
2022-08-26T15:20:37.369Z,11.57
2022-08-26T15:23:06.463Z,11.52
2022-08-26T15:25:33.029Z,13.13
2022-08-26T15:27:59.521Z,12.55
2022-08-26T15:30:25.988Z,14.38
2022-08-26T15:32:52.571Z,14.48
2022-08-26T15:35:19.202Z,14.40
2022-08-26T15:37:45.715Z,14.52
2022-08-26T15:40:12.367Z,16.17
2022-08-26T15:42:39.368Z,15.38
2022-08-26T15:45:06.296Z,14.52
2022-08-26T15:47:32.837Z,14.38
2022-08-26T15:50:15.093Z,13.48
2022-08-26T15:52:41.933Z,15.13
2022-08-26T15:55:09.253Z,16.90
2022-08-26T15:57:35.822Z,17.00
2022-08-26T16:00:02.764Z,16.13
2022-08-26T16:02:32.201Z,14.60
2022-08-26T16:05:00.170Z,16.80
2022-08-26T16:07:26.649Z,17.45
2022-08-26T16:09:54.607Z,18.67
2022-08-26T16:12:21.730Z,18.45
2022-08-26T16:14:51.342Z,18.20
2022-08-26T16:17:19.453Z,17.45
2022-08-26T16:19:46.121Z,20.90
2022-08-26T16:22:12.719Z,18.00
2022-08-26T16:24:39.533Z,17.40
2022-08-26T16:27:05.993Z,18.55
2022-08-26T16:29:32.638Z,18.10
2022-08-26T16:31:59.106Z,20.27
2022-08-26T16:34:25.620Z,20.58
2022-08-26T16:36:52.152Z,18.55
2022-08-26T16:39:18.708Z,18.63
2022-08-26T16:41:45.271Z,17.15
2022-08-26T16:44:12.261Z,17.30
2022-08-26T16:46:39.696Z,18.50
2022-08-26T16:49:06.481Z,18.42
2022-08-26T16:51:37.831Z,18.65
2022-08-26T16:54:07.097Z,18.08
2022-08-26T16:56:34.540Z,18.92
2022-08-26T16:59:04.065Z,17.55
2022-08-26T17:01:30.541Z,15.55
2022-08-26T17:03:57.207Z,14.77
2022-08-26T17:06:23.845Z,18.13
2022-08-26T17:08:50.384Z,17.17
2022-08-26T17:11:17.033Z,19.23
2022-08-26T17:13:43.671Z,19.70
2022-08-26T17:16:14.481Z,16.55
2022-08-26T17:18:41.242Z,17.75
2022-08-26T17:21:10.332Z,19.55
2022-08-26T17:23:37.796Z,18.48
2022-08-26T17:26:04.873Z,14.50
2022-08-26T17:28:32.285Z,12.30
2022-08-26T17:30:59.526Z,15.68
2022-08-26T17:33:26.561Z,15.43
2022-08-26T17:35:53.769Z,15.80
2022-08-26T17:38:23.711Z,19.70
2022-08-26T17:40:50.298Z,18.65
2022-08-26T17:43:17.872Z,17.77
2022-08-26T17:45:44.407Z,19.27
2022-08-26T17:48:11.224Z,21.38
2022-08-26T17:50:41.399Z,21.98
2022-08-26T17:53:08.362Z,22.85
2022-08-26T17:55:41.606Z,22.52
2022-08-26T17:58:11.717Z,25.35
2022-08-26T18:00:50.921Z,24.73
2022-08-26T18:03:19.070Z,24.83
2022-08-26T18:05:50.757Z,23.85
2022-08-26T18:08:17.368Z,23.55
2022-08-26T18:10:44.701Z,24.70
2022-08-26T18:13:11.674Z,24.88
2022-08-26T18:15:39.732Z,26.05
2022-08-26T18:18:06.341Z,23.83
2022-08-26T18:20:32.854Z,22.25
2022-08-26T18:22:59.354Z,22.67
2022-08-26T18:25:26.026Z,24.10
2022-08-26T18:27:52.478Z,23.17
2022-08-26T18:30:21.179Z,25.10
2022-08-26T18:32:49.214Z,23.17
2022-08-26T18:35:16.431Z,24.42
2022-08-26T18:37:44.353Z,25.45
2022-08-26T18:40:13.444Z,26.20
2022-08-26T18:42:41.305Z,27.98
2022-08-26T18:45:08.726Z,26.92
2022-08-26T18:47:36.068Z,25.20
2022-08-26T18:50:04.502Z,25.58
2022-08-26T18:52:31.897Z,26.73
2022-08-26T18:54:59.452Z,27.48
2022-08-26T18:57:25.948Z,25.55
2022-08-26T18:59:52.419Z,24.30
2022-08-26T19:02:19.078Z,29.48
2022-08-26T19:04:45.629Z,31.10
2022-08-26T19:07:12.090Z,31.02
2022-08-26T19:09:38.582Z,25.60
2022-08-26T19:12:05.505Z,27.70
2022-08-26T19:14:32.490Z,30.20
2022-08-26T19:16:59.278Z,28.50
2022-08-26T19:19:25.873Z,27.45
2022-08-26T19:21:53.070Z,25.48
2022-08-26T19:24:20.980Z,31.70
2022-08-26T19:26:51.357Z,30.05
2022-08-26T19:29:31.907Z,32.20
2022-08-26T19:31:59.196Z,25.63
2022-08-26T19:34:26.254Z,30.17
2022-08-26T19:36:54.063Z,33.15
2022-08-26T19:39:21.285Z,27.75
2022-08-26T19:41:47.895Z,25.67
2022-08-26T19:44:39.425Z,24.02
2022-08-26T19:47:08.384Z,27.00
2022-08-26T19:49:35.425Z,23.23
2022-08-26T19:52:03.024Z,21.98
2022-08-26T19:54:29.943Z,24.73
2022-08-26T19:56:56.808Z,23.30
2022-08-26T19:59:23.347Z,23.38
2022-08-26T20:02:00.427Z,25.02
2022-08-26T20:04:27.868Z,21.83
2022-08-26T20:06:57.689Z,23.15
2022-08-26T20:09:25.331Z,22.10
2022-08-26T20:12:13.226Z,22.58
2022-08-26T20:14:39.756Z,23.23
2022-08-26T20:17:06.992Z,21.80
2022-08-26T20:19:53.097Z,18.60
2022-08-26T20:22:20.604Z,20.92
2022-08-26T20:24:48.437Z,20.70
2022-08-26T20:27:15.494Z,22.20
2022-08-26T20:29:43.022Z,19.88
2022-08-26T20:32:10.031Z,20.98
2022-08-26T20:34:38.087Z,21.40
2022-08-26T20:37:05.134Z,22.95
2022-08-26T20:39:31.611Z,20.40
2022-08-26T20:41:58.536Z,20.17
2022-08-26T20:44:25.817Z,20.58
2022-08-26T20:46:52.346Z,16.60
2022-08-26T20:49:19.064Z,17.80
2022-08-26T20:51:48.266Z,17.90
2022-08-26T20:54:15.459Z,15.68
2022-08-26T20:56:42.052Z,15.80
2022-08-26T20:59:09.346Z,16.15
2022-08-26T21:01:42.093Z,16.63
2022-08-26T21:04:12.654Z,16.30
2022-08-26T21:06:39.496Z,16.23
2022-08-26T21:09:10.799Z,16.90
2022-08-26T21:11:38.780Z,16.98
2022-08-26T21:14:06.922Z,16.48
2022-08-26T21:16:43.436Z,16.75
2022-08-26T21:19:13.049Z,17.65
2022-08-26T21:21:40.787Z,16.83
2022-08-26T21:24:08.145Z,15.80
2022-08-26T21:26:34.833Z,16.52
2022-08-26T21:29:01.639Z,17.08
2022-08-26T21:31:29.595Z,16.17
2022-08-26T21:33:56.525Z,16.40
2022-08-26T21:36:23.019Z,15.68
2022-08-26T21:38:49.586Z,14.65
2022-08-26T21:41:21.889Z,15.10
2022-08-26T21:43:50.131Z,16.27
2022-08-26T21:46:20.154Z,15.30
2022-08-26T21:48:50.979Z,13.60
2022-08-26T21:51:20.487Z,14.30
2022-08-26T21:53:47.184Z,14.23
2022-08-26T21:56:16.036Z,13.45
2022-08-26T21:58:42.730Z,12.55
2022-08-26T22:01:12.125Z,13.77
2022-08-26T22:03:46.797Z,15.15
2022-08-26T22:06:14.044Z,16.02
2022-08-26T22:08:40.516Z,13.77
2022-08-26T22:11:07.050Z,14.23
2022-08-26T22:13:37.848Z,14.50
2022-08-26T22:16:05.705Z,15.45
2022-08-26T22:18:32.843Z,16.75
2022-08-26T22:21:02.719Z,16.00
2022-08-26T22:23:30.242Z,15.13
2022-08-26T22:25:58.247Z,15.55
2022-08-26T22:28:25.115Z,15.82
2022-08-26T22:30:52.477Z,16.25
2022-08-26T22:33:19.325Z,17.42
2022-08-26T22:35:48.478Z,16.83
2022-08-26T22:38:15.593Z,15.40
2022-08-26T22:40:48.410Z,13.95
2022-08-26T22:43:15.278Z,13.25
2022-08-26T22:45:46.795Z,14.15
2022-08-26T22:50:43.340Z,13.15
2022-08-26T22:53:10.070Z,13.32
2022-08-26T22:55:36.796Z,12.82
2022-08-26T22:58:03.627Z,12.10
2022-08-26T23:00:32.426Z,11.43
2022-08-26T23:02:59.950Z,11.45
2022-08-26T23:05:26.510Z,11.75
2022-08-26T23:07:53.913Z,10.82
2022-08-26T23:10:20.727Z,11.40
2022-08-26T23:12:47.213Z,12.00
2022-08-26T23:15:13.818Z,8.85
2022-08-26T23:17:40.852Z,9.50
2022-08-26T23:20:11.613Z,10.35
2022-08-26T23:22:39.714Z,10.37
2022-08-26T23:25:08.351Z,11.10
2022-08-26T23:27:38.921Z,11.27
2022-08-26T23:30:07.867Z,11.98
2022-08-26T23:32:34.389Z,12.93
2022-08-26T23:35:00.919Z,12.15
2022-08-26T23:37:37.086Z,10.27
2022-08-26T23:40:10.876Z,11.48
2022-08-26T23:42:38.274Z,13.18
2022-08-26T23:45:09.985Z,13.30
2022-08-26T23:47:36.628Z,12.30
2022-08-26T23:50:04.195Z,12.57
2022-08-26T23:52:49.365Z,12.18
2022-08-26T23:55:15.840Z,13.00
2022-08-26T23:57:42.640Z,13.30
